VEGT/GAU METAR and TAF weather

Enter ICAO airport designator
Station Type Date Time Source
VEGT METAR 2019/12/08 07:00 UTC NOAA

VEGT 080700Z 02007KT 4000 HZ FEW020 25/15 Q1016 NOSIG


Station Type Date Time Source
VEGT Decoded METAR 2019/12/08 07:00 UTC NOAA

Gauhati, India (VEGT) 26-06N 091-35E 54M
Dec 08, 2019 - 02:00 AM EST / 2019.12.08 0700 UTC
Wind: from the NNE (020 degrees) at 8 MPH (7 KT):0
Visibility: 2 mile(s):0
Sky conditions: mostly clear
Weather: haze
Temperature: 77 F (25 C)
Dew Point: 59 F (15 C)
Relative Humidity: 53%
Pressure (altimeter): 30.00 in. Hg (1016 hPa)
ob: VEGT 080700Z 02007KT 4000 HZ FEW020 25/15 Q1016 NOSIG
cycle: 7

Station Type Date Time Source
VEGT TAF 2016/03/24 00:45 UTC NOAA

TAF VEGT 242300Z 2500/2606 00000KT 2000 BR FEW020
BECMG 2503/2506 05008KT 4000 HZ
BECMG 2506/2509 5000 HZ
BECMG 2512/2514 00000KT 4000 HZ FEW020 SCT100
BECMG 2515/2518 2500 HZ
BECMG 2603/2606 05008KT 4000 HZ FEW020=

Example: see airport list